Accueil
METAR-TAF:

METAR-TAF

Aéroports :

Hopkinsville, Kentucky, États-Unis

latitude: 36-40N, longitude: 087-30W, altitude: 174 m

Observation

Le bulletin a été fait il y a 47 minutes, à 19:56 UTC
Vent 3 kt de est/nord-est
Température 31°C
Humidité 40%
Pression 1016 hPa
Visibilité: 16.1 km
Ciel clair

METAR: KHOP 141956Z AUTO 07003KT 10SM CLR 31/16 A3001 RMK AO2 SLP159 T03110159

Heure: 15:43 (20:43 UTC)

Prévision

Le bulletin a été fait il y a 23 minutes, à 20:20 UTC
Prévision valable du 14 à 20 UTC au 15 à 22 UTC
Vent 6 kt de direction variable
Visibilité 10 km ou plus
Quelques nuages à une hauteur de 4000 ft

TAF: KHOP 142020Z 1420/1522 VRB06KT 9999 FEW040 QNH2999INS TX33/1421Z TN19/1510Z

Observations et prévisions météorologiques de plus de 4000 aéroports (messages METAR et TAF).

Les stations disponibles sont représentées par des disques jaunes et rouges sur la carte.

Passer la souris dessus pour voir le nom de la station.

Cliquer dessus pour voir les observations et prévisions météorologiques.

Pour changer de carte: cliquez sur les boutons verts avec une croix noire pour zoomer, sur le bouton vert avec un tiret pour effectuer un zoom arrière, ou sur les flèches vertes pour les cartes adjacentes.


METAR-TAF: